createdAt,value
2022-09-09T00:01:07.310Z,14.68
2022-09-09T00:06:22.107Z,14.65
2022-09-09T00:12:03.724Z,14.60
2022-09-09T00:17:12.729Z,14.56
2022-09-09T00:22:24.150Z,14.52
2022-09-09T00:27:38.476Z,14.50
2022-09-09T00:32:39.600Z,14.47
2022-09-09T00:37:42.313Z,14.44
2022-09-09T00:42:44.937Z,14.41
2022-09-09T00:47:54.315Z,14.38
2022-09-09T00:53:25.215Z,14.36
2022-09-09T00:58:27.770Z,14.34
2022-09-09T01:03:49.508Z,14.31
2022-09-09T01:09:15.961Z,14.28
2022-09-09T01:14:27.553Z,14.27
2022-09-09T01:19:39.572Z,14.24
2022-09-09T01:25:18.368Z,14.21
2022-09-09T01:30:20.925Z,14.19
2022-09-09T01:35:52.011Z,14.16
2022-09-09T01:40:54.104Z,14.13
2022-09-09T01:45:59.467Z,14.11
2022-09-09T01:51:00.665Z,14.07
2022-09-09T01:56:10.963Z,14.04
2022-09-09T02:01:30.673Z,14.00
2022-09-09T02:06:37.951Z,13.97
2022-09-09T02:11:40.352Z,13.93
2022-09-09T02:16:47.017Z,13.91
2022-09-09T02:21:48.949Z,13.90
2022-09-09T02:26:54.573Z,13.90
2022-09-09T02:32:02.286Z,13.90
2022-09-09T02:37:06.802Z,13.88
2022-09-09T02:42:08.911Z,13.75
2022-09-09T02:47:55.349Z,13.53
2022-09-09T02:53:02.014Z,13.25
2022-09-09T02:58:07.342Z,13.02
2022-09-09T03:03:09.767Z,12.81
2022-09-09T03:08:11.485Z,12.64
2022-09-09T03:13:15.525Z,12.52
2022-09-09T03:18:16.752Z,12.42
2022-09-09T03:23:17.864Z,12.28
2022-09-09T03:28:19.320Z,12.13
2022-09-09T03:33:20.697Z,11.97
2022-09-09T03:38:21.758Z,11.88
2022-09-09T03:43:24.081Z,11.83
2022-09-09T03:48:28.659Z,11.80
2022-09-09T03:53:29.978Z,11.84
2022-09-09T03:58:31.091Z,11.86
2022-09-09T04:03:32.348Z,11.75
2022-09-09T04:08:34.009Z,11.58
2022-09-09T04:13:38.846Z,11.43
2022-09-09T04:18:40.036Z,11.29
2022-09-09T04:23:41.083Z,11.16
2022-09-09T04:28:43.870Z,11.06
2022-09-09T04:33:46.066Z,10.97
2022-09-09T04:38:49.142Z,10.90
2022-09-09T04:43:50.546Z,10.85
2022-09-09T04:48:53.329Z,10.77
2022-09-09T04:53:54.507Z,10.70
2022-09-09T04:58:56.523Z,10.65
2022-09-09T05:03:58.116Z,10.57
2022-09-09T05:09:00.092Z,10.51
2022-09-09T05:14:01.498Z,10.48
2022-09-09T05:19:04.359Z,10.48
2022-09-09T05:24:06.993Z,10.46
2022-09-09T05:29:08.521Z,10.45
2022-09-09T05:34:11.519Z,10.42
2022-09-09T05:39:12.670Z,10.38
2022-09-09T05:44:13.819Z,10.36
2022-09-09T05:49:16.039Z,10.36
2022-09-09T05:54:18.000Z,10.35
2022-09-09T05:59:19.703Z,10.34
2022-09-09T06:04:22.808Z,10.33
2022-09-09T06:09:23.988Z,10.30
2022-09-09T06:14:27.643Z,10.27
2022-09-09T06:19:30.979Z,10.27
2022-09-09T06:24:33.178Z,10.25
2022-09-09T06:29:34.343Z,10.26
2022-09-09T06:34:36.711Z,10.30
2022-09-09T06:39:38.085Z,10.40
2022-09-09T06:44:39.305Z,10.49
2022-09-09T06:49:43.756Z,10.60
2022-09-09T06:54:46.646Z,10.65
2022-09-09T06:59:47.801Z,10.71
2022-09-09T07:04:51.290Z,10.78
2022-09-09T07:09:52.399Z,10.89
2022-09-09T07:14:53.580Z,10.91
2022-09-09T07:19:54.667Z,10.93
2022-09-09T07:24:56.075Z,10.89
2022-09-09T07:29:57.707Z,10.86
2022-09-09T07:34:58.917Z,10.85
2022-09-09T07:40:00.064Z,10.87
2022-09-09T07:45:01.226Z,10.89
2022-09-09T07:50:02.352Z,10.91
2022-09-09T07:55:04.855Z,10.94
2022-09-09T08:00:06.968Z,11.03
2022-09-09T08:05:08.335Z,11.09
2022-09-09T08:10:10.010Z,11.12
2022-09-09T08:15:11.446Z,11.13
2022-09-09T08:20:13.103Z,11.18
2022-09-09T08:25:14.780Z,11.32
2022-09-09T08:30:18.996Z,11.52
2022-09-09T08:35:20.907Z,11.76
2022-09-09T08:40:29.534Z,11.85
2022-09-09T08:45:43.216Z,11.68
2022-09-09T08:50:47.064Z,11.57
2022-09-09T08:55:53.429Z,11.52
2022-09-09T09:01:19.594Z,11.53
2022-09-09T09:06:36.871Z,11.57
2022-09-09T09:11:41.054Z,11.61
2022-09-09T09:17:03.875Z,11.68
2022-09-09T09:22:25.536Z,11.67
2022-09-09T09:27:40.582Z,11.62
2022-09-09T09:32:51.866Z,11.61
2022-09-09T09:43:20.631Z,11.66
2022-09-09T09:48:22.633Z,11.71
2022-09-09T09:53:32.482Z,11.76
2022-09-09T09:58:50.295Z,11.84
2022-09-09T10:03:55.154Z,11.90
2022-09-09T10:08:56.640Z,12.01
2022-09-09T10:14:35.663Z,12.16
2022-09-09T10:19:38.681Z,12.31
2022-09-09T10:24:57.079Z,12.44
2022-09-09T10:30:10.518Z,12.47
2022-09-09T10:35:33.537Z,12.37
2022-09-09T10:40:53.457Z,12.30
2022-09-09T10:46:13.072Z,12.29
2022-09-09T10:51:21.505Z,12.32
2022-09-09T10:56:24.300Z,12.29
2022-09-09T11:01:49.553Z,12.29
2022-09-09T11:06:55.774Z,12.31
2022-09-09T11:11:59.718Z,12.22
2022-09-09T11:17:05.799Z,12.15
2022-09-09T11:22:20.237Z,12.09
2022-09-09T11:27:32.381Z,12.08
2022-09-09T11:33:05.521Z,12.08
2022-09-09T11:38:28.031Z,12.16
2022-09-09T11:43:39.253Z,12.24
2022-09-09T11:48:59.343Z,12.32
2022-09-09T11:54:23.106Z,12.34
2022-09-09T11:59:24.871Z,12.31
2022-09-09T12:04:25.921Z,12.37
2022-09-09T12:09:46.145Z,12.42
2022-09-09T12:15:09.181Z,12.47
2022-09-09T12:20:19.120Z,12.53
2022-09-09T12:25:32.934Z,12.60
2022-09-09T12:30:49.003Z,12.64
2022-09-09T12:35:57.194Z,12.71
2022-09-09T12:40:59.463Z,12.76
2022-09-09T12:46:07.630Z,12.81
2022-09-09T12:51:29.498Z,12.71
2022-09-09T12:56:32.735Z,12.71
2022-09-09T13:01:34.330Z,12.75
2022-09-09T13:06:36.687Z,12.84
2022-09-09T13:11:43.653Z,12.79
2022-09-09T13:16:56.265Z,12.71
2022-09-09T13:21:57.818Z,12.70
2022-09-09T13:27:04.358Z,12.76
2022-09-09T13:32:27.127Z,12.84
2022-09-09T13:37:36.303Z,12.87
2022-09-09T13:42:42.854Z,12.87
2022-09-09T13:47:46.447Z,12.96
2022-09-09T13:52:53.558Z,13.01
2022-09-09T13:58:02.879Z,12.98
2022-09-09T14:03:04.109Z,12.97
2022-09-09T14:08:07.528Z,12.97
2022-09-09T14:13:08.729Z,12.96
2022-09-09T14:18:13.468Z,12.97
2022-09-09T14:23:15.847Z,12.99
2022-09-09T14:28:20.533Z,13.00
2022-09-09T14:33:29.376Z,13.01
2022-09-09T14:38:39.724Z,12.99
2022-09-09T14:43:42.098Z,13.01
2022-09-09T14:48:45.475Z,13.00
2022-09-09T14:53:48.789Z,13.01
2022-09-09T14:58:54.299Z,12.99
2022-09-09T15:04:01.074Z,12.99
2022-09-09T15:09:03.116Z,13.02
2022-09-09T15:14:06.104Z,13.04
2022-09-09T15:19:09.501Z,13.03
2022-09-09T15:24:11.980Z,13.01
2022-09-09T15:29:14.481Z,13.02
2022-09-09T15:34:17.010Z,13.01
2022-09-09T15:39:18.805Z,13.03
2022-09-09T15:44:20.748Z,13.05
2022-09-09T15:49:27.482Z,13.06
2022-09-09T15:54:37.009Z,13.08
2022-09-09T15:59:38.267Z,13.09
2022-09-09T16:04:39.456Z,13.07
2022-09-09T16:09:42.743Z,13.04
2022-09-09T16:14:46.076Z,13.00
2022-09-09T16:19:47.425Z,12.93
2022-09-09T16:24:50.746Z,12.86
2022-09-09T16:29:52.035Z,12.81
2022-09-09T16:34:53.523Z,12.78
2022-09-09T16:39:56.795Z,12.78
2022-09-09T16:45:01.632Z,12.76
2022-09-09T16:50:03.572Z,12.68
2022-09-09T16:55:05.418Z,12.62
2022-09-09T17:00:09.258Z,12.59
2022-09-09T17:05:11.653Z,12.56
2022-09-09T17:10:14.306Z,12.53
2022-09-09T17:15:15.644Z,12.51
2022-09-09T17:20:16.958Z,12.48
2022-09-09T17:25:20.678Z,12.44
2022-09-09T17:30:25.306Z,12.40
2022-09-09T17:35:27.644Z,12.38
2022-09-09T17:40:29.068Z,12.36
2022-09-09T17:45:32.879Z,12.34
2022-09-09T17:50:35.545Z,12.33
2022-09-09T17:55:37.006Z,12.30
2022-09-09T18:00:38.267Z,12.26
2022-09-09T18:05:39.474Z,12.22
2022-09-09T18:10:41.730Z,12.18
2022-09-09T18:15:49.287Z,12.16
2022-09-09T18:21:09.255Z,12.14
2022-09-09T18:26:15.471Z,12.09
2022-09-09T18:31:19.811Z,12.06
2022-09-09T18:36:25.954Z,12.05
2022-09-09T18:41:34.766Z,12.03
2022-09-09T18:46:36.939Z,11.99
2022-09-09T18:51:40.794Z,11.99
2022-09-09T18:56:42.984Z,12.03
2022-09-09T19:01:46.094Z,12.04
2022-09-09T19:06:57.027Z,12.06
2022-09-09T19:11:59.631Z,12.07
2022-09-09T19:17:00.948Z,12.07
2022-09-09T19:22:06.090Z,12.04
2022-09-09T19:27:08.009Z,12.05
2022-09-09T19:37:34.163Z,12.08
2022-09-09T19:42:35.448Z,12.07
2022-09-09T19:47:36.752Z,12.05
2022-09-09T19:52:38.215Z,12.02
2022-09-09T19:57:39.688Z,12.00
2022-09-09T20:02:45.425Z,11.99
2022-09-09T20:07:55.256Z,11.98
2022-09-09T20:12:56.503Z,11.99
2022-09-09T20:17:57.711Z,11.99
2022-09-09T20:22:58.947Z,11.97
2022-09-09T20:28:00.002Z,11.96
2022-09-09T20:33:01.539Z,11.96
2022-09-09T20:38:02.864Z,11.96
2022-09-09T20:43:05.958Z,11.98
2022-09-09T20:48:07.501Z,12.00
2022-09-09T20:53:08.789Z,12.05
2022-09-09T20:58:10.332Z,12.08
2022-09-09T21:03:11.506Z,12.09
2022-09-09T21:08:13.034Z,12.08
2022-09-09T21:13:14.138Z,12.06
2022-09-09T21:18:16.791Z,12.05
2022-09-09T21:23:18.019Z,12.04
2022-09-09T21:28:19.846Z,12.07
2022-09-09T21:33:23.830Z,12.08
2022-09-09T21:38:25.334Z,12.08
2022-09-09T21:43:26.533Z,12.06
2022-09-09T21:48:27.652Z,12.05
2022-09-09T21:53:29.285Z,12.06
2022-09-09T21:58:31.082Z,12.06
2022-09-09T22:03:36.172Z,12.07
2022-09-09T22:08:37.576Z,12.12
2022-09-09T22:13:39.512Z,12.16
2022-09-09T22:18:42.223Z,12.18
2022-09-09T22:23:54.751Z,12.17
2022-09-09T22:28:56.599Z,12.17
2022-09-09T22:33:58.097Z,12.16
2022-09-09T22:38:59.313Z,12.16
2022-09-09T22:44:01.303Z,12.18
2022-09-09T22:49:03.065Z,12.18
2022-09-09T22:54:05.018Z,12.21
2022-09-09T22:59:06.321Z,12.22
2022-09-09T23:04:07.632Z,12.21
2022-09-09T23:09:12.072Z,12.17
2022-09-09T23:14:14.363Z,12.15
2022-09-09T23:19:16.112Z,12.15
2022-09-09T23:24:18.363Z,12.17
2022-09-09T23:29:20.158Z,12.16
2022-09-09T23:34:21.302Z,12.14
2022-09-09T23:39:22.462Z,12.15
2022-09-09T23:44:23.709Z,12.15
2022-09-09T23:49:25.941Z,12.15
2022-09-09T23:54:27.385Z,12.16
2022-09-09T23:59:32.006Z,12.15
